Tiempo atmosférico en la estación meteorológica de Alcazar De San Juan, Ciudad Real (664 m.)



Fecha
DESCASC
Temp. máxima en grados centígrados (hora)
DESCASC
Temp. mínima en grados centígrados (hora)
DESCASC
Temp. media en grados centígrados
DESCASC
Racha de viento máxima en m/sg (hora)
DESCASC
Velocidad máxima media en intervalos de 10 minutos(hora)
DESCASC
Precipitaciones diarias en mm
DESCASC
Precipitaciones de 00:00 a 06:00 en mm
DESCASC
Precipitaciones de 06:00 a 12:00 en mm
DESCASC
Precipitaciones de 12:00 a 18:00 en mm
DESCASC
Precipitaciones de 18:00 a 24:00 en mm
DESCASC
11-08-2020 31.1 (14:10) 16.7 (21:20) 23.9 12.22 (18:20) 5.56 (17:30) 13.2 0 0 4.2 9
10-08-2020 33.6 (18:30) 21.5 (11:30) 27.5 13.06 (17:10) 6.39 (17:10) 1 0 0.8 0.2 0
09-08-2020 40.3 (17:10) 23.4 (08:00) 31.8 8.61 (14:00) 3.61 (14:30) 0 0 0 0 0
08-08-2020 37.1 (14:50) 23.9 (07:00) 30.5 11.94 (16:40) 5.56 (16:40) 0 0 0 0 0
07-08-2020 40 (17:10) 21.8 (00:00) 30.9 7.78 (05:00) 3.06 (19:10) 0 0 0 0 0
06-08-2020 38.7 (16:40) 21.9 (00:00) 30.3 7.78 (05:10) 2.78 (15:30) 0 0 0 0 0
05-08-2020 37.6 (17:00) 21 (00:00) 29.3 6.39 (07:00) 2.5 (14:30) 0 0 0 0 0
04-08-2020 34.9 (18:00) 20.9 (05:30) 27.9 7.22 (02:10) 2.78 (02:20) 0 0 0 0 0
03-08-2020 33.7 (17:50) 20.8 (08:30) 27.3 7.78 (15:00) 3.89 (01:30) 0 0 0 0 0
02-08-2020 39.4 (16:50) 21.9 (00:00) 30.7 10.28 (14:10) 3.89 (14:10) 0 0 0 0 0
01-08-2020 40.4 (16:20) 23.9 (00:00) 32.2 8.89 (17:50) 3.33 (14:20) 0 0 0 0 0
31-07-2020 40.8 (17:20) 23.6 (07:40) 32.2 7.5 (19:30) 2.78 (18:10) 0 0 0 0 0
30-07-2020 41.6 (16:40) 22.3 (00:00) 31.9 10.56 (00:20) 4.17 (16:50) 0 0 0 0 0
29-07-2020 39.1 (16:30) 22.8 (00:00) 30.9 9.44 (23:00) 3.06 (23:50) 0 0 0 0 0
28-07-2020 38.3 (17:20) 24 (00:00) 31.1 8.33 (14:00) 3.33 (15:00) 0 0 0 0 0
27-07-2020 41.7 (17:00) 22.9 (00:00) 32.3 8.61 (17:50) 3.61 (20:00) 0 0 0 0 0
26-07-2020 41.1 (17:50) 22.5 (00:00) 31.8 6.67 (17:20) 3.33 (17:30) 0 0 0 0 0
25-07-2020 39.5 (18:00) 21.5 (00:00) 30.5 8.33 (15:40) 3.33 (16:20) 0 0 0 0 0
24-07-2020 38.7 (17:50) 22.8 (00:00) 30.8 7.5 (19:00) 3.06 (19:00) 0 0 0 0 0
23-07-2020 37.4 (17:10) 20.8 (00:00) 29.1 5.83 (00:10) 2.22 (00:10) 0 0 0 0 0
22-07-2020 35 (17:00) 20.2 (00:00) 27.6 8.33 (00:30) 3.33 (02:10) 0 0 0 0 0
21-07-2020 36 (16:10) 20.3 (00:00) 28.1 8.61 (03:20) 3.33 (20:40) 0 0 0 0 0
20-07-2020 38.8 (17:20) 20.2 (00:00) 29.5 6.11 (17:00) 2.5 (14:30) 0 0 0 0 0
19-07-2020 39.3 (16:30) 20.2 (00:00) 29.8 13.89 (18:20) 6.94 (18:30) 0 0 0 0 0
18-07-2020 37.1 (16:50) 19.4 (00:00) 28.2 6.94 (06:20) 2.5 (19:40) 0 0 0 0 0
17-07-2020 36.4 (16:40) 20.2 (00:00) 28.3 8.61 (17:40) 3.61 (17:30) 0 0 0 0 0
16-07-2020 35.5 (17:00) 19.9 (00:00) 27.7 6.94 (08:10) 2.5 (12:50) 0 0 0 0 0
15-07-2020 33.4 (18:20) 17.5 (00:00) 25.5 7.5 (04:40) 2.78 (16:50) 0 0 0 0 0
14-07-2020 34.8 (17:00) 20 (00:00) 27.4 10.83 (19:00) 6.11 (18:20) 0 0 0 0 0

Gráficas

Temp. máximas Temp. mínimas Temp. medias Precipitaciones Rachas de viento máximas Velocidades máximas media en intervalos de 10 minutos

Datos horarios

Fecha y hora oficial Temperatura (ºC) Velocidad del viento (km/h) Dirección del viento Racha (km/h) Dirección de racha Precipitación (mm) Presión (hPa) Tendencia (hPa) Humedad (%)
2020-08-12 23:00:00 23.4 3 Noroeste 10 Noroeste 0 -- -- 50
2020-08-12 22:00:00 25.1 4 Norte 15 Norte 0 -- -- 48
2020-08-12 21:00:00 27 4 Noroeste 15 Sudoeste 0 -- -- 41
2020-08-12 20:00:00 28.3 6 Oeste 22 Oeste 0 -- -- 35
2020-08-12 19:00:00 29.2 6 Oeste 21 Oeste 0 -- -- 37
2020-08-12 18:00:00 30.6 8 Oeste 23 Sudoeste 0 -- -- 35
2020-08-12 17:00:00 29.9 5 Sudoeste 23 Sur 0 -- -- 39
2020-08-12 16:00:00 29.2 10 Sur 21 Sudeste 0 -- -- 41
2020-08-12 15:00:00 28.5 11 Sur 28 Sur 0 -- -- 34
2020-08-12 14:00:00 27 8 Sur 17 Sudoeste 0 -- -- 45
2020-08-12 13:00:00 25.4 6 Sudoeste 14 Sur 0 -- -- 55
2020-08-12 12:00:00 23.6 4 Sur 10 Sur 0 -- -- 63
2020-08-12 11:00:00 21.1 5 Sur 15 Sudeste 0 -- -- 73
2020-08-12 10:00:00 17.8 5 Sudeste 13 Sur 0 -- -- 87
2020-08-12 09:00:00 16.1 4 Sur 12 Sudeste 0 -- -- 91
2020-08-12 08:00:00 15.3 3 Sur 10 Sur 0 -- -- 92
2020-08-12 07:00:00 15.2 2 Sur 11 Nordeste 0 -- -- 92
2020-08-12 06:00:00 15.3 4 Este 12 Nordeste 0 -- -- 92
2020-08-12 05:00:00 15.5 3 Nordeste 12 Nordeste 0 -- -- 91
2020-08-12 04:00:00 15.6 3 Nordeste 6 Nordeste 0 -- -- 91
2020-08-12 03:00:00 15.8 5 Sur 18 Sur 0 -- -- 90
2020-08-12 02:00:00 15.9 7 Sudeste 21 Este 0 -- -- 90
2020-08-12 01:00:00 16.3 9 Sudeste 22 Sur 0 -- -- 90
2020-08-12 00:00:00 17 4 Sudoeste 13 Oeste 0 -- -- 91
2020-08-11 23:00:00 17.1 0 Calma 16 Nordeste 0.8 -- -- 88
2020-08-11 22:00:00 17 6 Nordeste 26 Nordeste 0.8 -- -- 87
2020-08-11 21:00:00 16.8 9 Nordeste 34 Nordeste 6.2 -- -- 89
2020-08-11 20:00:00 17.3 12 Nordeste 37 Norte 1 -- -- 87
2020-08-11 19:00:00 18.9 13 Norte 44 Norte 0.2 -- -- 84
2020-08-11 18:00:00 20.1 13 Noroeste 41 Norte 4.2 -- -- 83
2020-08-11 17:00:00 25.1 11 Norte 35 Nordeste 0 -- -- 56
2020-08-11 16:00:00 25.3 13 Norte 34 Norte 0 -- -- 56
2020-08-11 15:00:00 26 13 Norte 36 Norte 0 -- -- 59
2020-08-11 14:00:00 30.8 5 Sudeste 19 Sur 0 -- -- 31
2020-08-11 13:00:00 28 4 Sudeste 17 Este 0 -- -- 39
2020-08-11 12:00:00 27.1 7 Sudeste 22 Sudeste 0 -- -- 40
2020-08-11 11:00:00 25 9 Sur 26 Sudeste 0 -- -- 49
2020-08-11 10:00:00 24.4 6 Sudeste 27 Sudeste 0 -- -- 55
2020-08-11 09:00:00 22.5 7 Sudeste 19 Sudeste 0 -- -- 57
2020-08-11 08:00:00 21.5 5 Sudeste 21 Este 0 -- -- 54
2020-08-11 07:00:00 21.9 6 Sudeste 16 Sudeste 0 -- -- 52
2020-08-11 06:00:00 22.3 4 Sudeste 16 Este 0 -- -- 50
2020-08-11 05:00:00 22.7 8 Sudeste 20 Este 0 -- -- 54
2020-08-11 04:00:00 23.4 6 Sudeste 21 Sudeste 0 -- -- 51
2020-08-11 03:00:00 24.4 6 Sudeste 21 Este 0 -- -- 43
2020-08-11 02:00:00 25.6 5 Sudeste 19 Este 0 -- -- 38
2020-08-11 01:00:00 26.7 6 Sudeste 18 Sudeste 0 -- -- 36
2020-08-11 00:00:00 28.2 5 Sudeste 19 Sur 0 -- -- 33
2020-08-10 23:00:00 27.7 6 Sudeste 14 Sudeste 0 -- -- 32
2020-08-10 22:00:00 29.2 5 Sudeste 19 Sudeste 0 -- -- 31
2020-08-10 21:00:00 31.1 7 Sur 26 Sur 0 -- -- 28
2020-08-10 20:00:00 31.8 11 Sur 28 Sur 0 -- -- 28
2020-08-10 19:00:00 32.7 17 Sur 34 Sur 0 -- -- 25
2020-08-10 18:00:00 32.4 17 Sur 47 Sur 0 -- -- 25
2020-08-10 17:00:00 32.3 20 Sur 40 Sur 0 -- -- 26
2020-08-10 16:00:00 28.4 19 Sur 40 Sudoeste 0 -- -- 33
2020-08-10 15:00:00 26.3 10 Sur 37 Sudeste 0 -- -- 45
2020-08-10 14:00:00 24.7 8 Sur 21 Sudoeste 0 -- -- 54
2020-08-10 13:00:00 25.1 13 Sudoeste 36 Sur 0.2 -- -- 50
2020-08-10 12:00:00 22.1 4 Oeste 22 Norte 0.2 -- -- 66
2020-08-10 11:00:00 24 6 Noroeste 15 Oeste 0.6 -- -- 56
2020-08-10 10:00:00 25.6 2 Noroeste 7 Noroeste 0 -- -- 40
2020-08-10 09:00:00 24.8 0 Calma 11 Sudeste 0 -- -- 42
2020-08-10 08:00:00 23.7 3 Sur 10 Sudeste 0 -- -- 41
2020-08-10 07:00:00 23.6 3 Sudeste 17 Sudeste 0 -- -- 42
2020-08-10 06:00:00 24.1 5 Sudeste 14 Este 0 -- -- 42
2020-08-10 05:00:00 24.9 6 Sudeste 17 Este 0 -- -- 42
2020-08-10 04:00:00 26.4 4 Sudeste 13 Sudeste 0 -- -- 37
2020-08-10 03:00:00 27.9 5 Sur 16 Sur 0 -- -- 32
2020-08-10 02:00:00 28.9 5 Sur 13 Sudeste 0 -- -- 30
2020-08-10 01:00:00 29.6 4 Sur 9 Sur 0 -- -- 28
2020-08-10 00:00:00 30.3 5 Oeste 12 Sudoeste 0 -- -- 27
2020-08-09 23:00:00 31.7 4 Sur 6 Sudoeste 0 -- -- 25
2020-08-09 22:00:00 34 2 Sudoeste 11 Oeste 0 -- -- 22
2020-08-09 21:00:00 36.2 5 Oeste 23 Oeste 0 -- -- 20
2020-08-09 20:00:00 37.7 8 Sudoeste 22 Sudoeste 0 -- -- 18
2020-08-09 19:00:00 38.8 10 Sudoeste 23 Sur 0 -- -- 17
2020-08-09 18:00:00 40.1 9 Sudoeste 23 Oeste 0 -- -- 17
2020-08-09 17:00:00 40.2 6 Oeste 20 Oeste 0 -- -- 17
2020-08-09 16:00:00 39.5 10 Sudoeste 21 Sudoeste 0 -- -- 18
2020-08-09 15:00:00 38.6 9 Sudoeste 28 Sur 0 -- -- 19
2020-08-09 14:00:00 37.8 11 Sur 31 Sudeste 0 -- -- 20
2020-08-09 13:00:00 35.9 7 Sudoeste 18 Oeste 0 -- -- 23
2020-08-09 12:00:00 33.8 6 Sur 13 Sur 0 -- -- 29
2020-08-09 11:00:00 30.7 3 Sudeste 10 Sur 0 -- -- 32
2020-08-09 10:00:00 26.5 3 Sudoeste 9 Sur 0 -- -- 41
2020-08-09 09:00:00 23.9 0 Calma 9 Sur 0 -- -- 49
2020-08-09 08:00:00 23.4 0 Calma 9 Sudeste 0 -- -- 49
2020-08-09 07:00:00 24 2 Sur 14 Sudeste 0 -- -- 47
2020-08-09 06:00:00 24.5 4 Sur 13 Este 0 -- -- 46
2020-08-09 05:00:00 24.8 5 Sudeste 16 Este 0 -- -- 48
2020-08-09 04:00:00 25.5 5 Sudeste 16 Sudeste 0 -- -- 45
2020-08-09 03:00:00 26.5 6 Sudeste 19 Sudeste 0 -- -- 41
2020-08-09 02:00:00 27.6 6 Sudeste 22 Nordeste 0 -- -- 38
2020-08-09 01:00:00 28.6 5 Sudeste 19 Sudeste 0 -- -- 35
2020-08-09 00:00:00 30 5 Sudeste 19 Sudeste 0 -- -- 31
2020-08-08 23:00:00 31.4 4 Sudeste 17 Sur 0 -- -- 27
2020-08-08 22:00:00 32.2 2 Sudeste 22 Sur 0 -- -- 22
2020-08-08 21:00:00 34 16 Sur 36 Sudoeste 0 -- -- 20
2020-08-08 20:00:00 35.5 11 Sur 19 Sur 0 -- -- 22
2020-08-08 19:00:00 35.7 8 Sur 25 Sudoeste 0 -- -- 22
2020-08-08 18:00:00 36.4 17 Sur 27 Sudoeste 0 -- -- 22
2020-08-08 17:00:00 32.9 9 Sudoeste 43 Sudoeste 0 -- -- 24
2020-08-08 16:00:00 34.3 8 Oeste 24 Oeste 0 -- -- 24
2020-08-08 15:00:00 36.8 7 Oeste 19 Oeste 0 -- -- 23
2020-08-08 14:00:00 35.3 8 Sudoeste 24 Sudoeste 0 -- -- 25
2020-08-08 13:00:00 34.9 5 Oeste 15 Sur 0 -- -- 27
2020-08-08 12:00:00 33 4 Oeste 8 Sur 0 -- -- 29
2020-08-08 11:00:00 30.7 5 Sur 11 Sur 0 -- -- 31
2020-08-08 10:00:00 27.4 6 Sudeste 19 Sudeste 0 -- -- 37
2020-08-08 09:00:00 25.5 5 Sur 7 Sur 0 -- -- 36
2020-08-08 08:00:00 24.4 3 Oeste 11 Sur 0 -- -- 40
2020-08-08 07:00:00 23.9 5 Sur 12 Sur 0 -- -- 42
2020-08-08 06:00:00 24.9 2 Sudeste 9 Este 0 -- -- 43
2020-08-08 05:00:00 25.5 3 Sudeste 9 Sudeste 0 -- -- 42
2020-08-08 04:00:00 26.1 3 Sur 13 Sudeste 0 -- -- 40
2020-08-08 03:00:00 26.8 4 Sudeste 18 Sudeste 0 -- -- 37
2020-08-08 02:00:00 27.7 4 Sudeste 15 Este 0 -- -- 35
2020-08-08 01:00:00 29.2 4 Sudeste 15 Sudeste 0 -- -- 32
2020-08-08 00:00:00 31.4 4 Sudeste 14 Sudeste 0 -- -- 27
2020-08-07 23:00:00 32.8 6 Sur 14 Sudeste 0 -- -- 25
2020-08-07 22:00:00 34.9 4 Sudeste 12 Sudeste 0 -- -- 22
2020-08-07 21:00:00 36.4 2 Sudeste 8 Sur 0 -- -- 23
2020-08-07 20:00:00 37.9 3 Sudoeste 18 Sur 0 -- -- 22
2020-08-07 19:00:00 38.9 5 Sur 17 Sur 0 -- -- 21
2020-08-07 18:00:00 39.6 6 Sur 17 Sur 0 -- -- 21
2020-08-07 17:00:00 39.9 7 Sur 20 Sudeste 0 -- -- 21
2020-08-07 16:00:00 39.1 5 Este 15 Sudeste 0 -- -- 21
2020-08-07 15:00:00 38 6 Sur 16 Sur 0 -- -- 23
2020-08-07 14:00:00 36.7 8 Sur 15 Sudeste 0 -- -- 24
2020-08-07 13:00:00 35.5 5 Sur 13 Sur 0 -- -- 27
2020-08-07 12:00:00 32.8 4 Este 11 Este 0 -- -- 31
2020-08-07 11:00:00 29.8 5 Sudeste 13 Sur 0 -- -- 37
2020-08-07 10:00:00 25.8 4 Sudeste 12 Sur 0 -- -- 45
2020-08-07 09:00:00 23.4 4 Sur 13 Sudeste 0 -- -- 49
2020-08-07 08:00:00 22.1 5 Sudeste 17 Sudeste 0 -- -- 51
2020-08-07 07:00:00 22 6 Sudeste 17 Sur 0 -- -- 51
2020-08-07 06:00:00 22.7 5 Sudeste 26 Sudeste 0 -- -- 50
2020-08-07 05:00:00 23.4 8 Sudeste 28 Sur 0 -- -- 50
2020-08-07 04:00:00 24.4 7 Sudeste 21 Sudeste 0 -- -- 49
2020-08-07 03:00:00 25.5 7 Sudeste 24 Este 0 -- -- 47
2020-08-07 02:00:00 26.9 8 Sudeste 24 Sudeste 0 -- -- 45
2020-08-07 01:00:00 28.9 6 Sudeste 18 Sudeste 0 -- -- 39
2020-08-07 00:00:00 30.3 5 Sudeste 21 Sudeste 0 -- -- 35
2020-08-06 23:00:00 31.8 9 Sudeste 22 Sudeste 0 -- -- 31
2020-08-06 22:00:00 33.4 8 Sudeste 24 Sudeste 0 -- -- 26
2020-08-06 21:00:00 35.1 8 Sudeste 23 Sur 0 -- -- 24
2020-08-06 20:00:00 36.5 6 Sudeste 20 Sudeste 0 -- -- 23
2020-08-06 19:00:00 37.8 7 Sudeste 18 Este 0 -- -- 22
2020-08-06 18:00:00 38.7 8 Sur 17 Sudeste 0 -- -- 22
2020-08-06 17:00:00 38.7 9 Sur 20 Sur 0 -- -- 23
2020-08-06 16:00:00 38 7 Sur 18 Sudeste 0 -- -- 23
2020-08-06 15:00:00 36.8 6 Sudeste 19 Sur 0 -- -- 27
2020-08-06 14:00:00 35.4 5 Sudeste 17 Sudeste 0 -- -- 30
2020-08-06 13:00:00 33.6 5 Sur 16 Nordeste 0 -- -- 34
2020-08-06 12:00:00 31.3 6 Sudeste 17 Este 0 -- -- 40
2020-08-06 11:00:00 28.5 5 Sudeste 24 Sudeste 0 -- -- 50
2020-08-06 10:00:00 24.9 7 Sudeste 19 Sudeste 0 -- -- 61
2020-08-06 09:00:00 22.7 9 Sudeste 22 Este 0 -- -- 69
2020-08-06 08:00:00 21.9 7 Sudeste 22 Sudeste 0 -- -- 70
2020-08-06 07:00:00 22.1 7 Sudeste 25 Sudeste 0 -- -- 68
2020-08-06 06:00:00 22.6 8 Sudeste 28 Sudeste 0 -- -- 66
2020-08-06 05:00:00 23.2 8 Sudeste 26 Sudeste 0 -- -- 64
2020-08-06 04:00:00 24.1 7 Sudeste 27 Sudeste 0 -- -- 61
2020-08-06 03:00:00 25.5 7 Sudeste 24 Este 0 -- -- 59
2020-08-06 02:00:00 27.3 6 Sudeste 20 Este 0 -- -- 51
2020-08-06 01:00:00 29.1 4 Sudeste 14 Este 0 -- -- 35
2020-08-06 00:00:00 30.6 2 Sudeste 8 Este 0 -- -- 27
2020-08-05 23:00:00 31.4 2 Este 9 Este 0 -- -- 26
2020-08-05 22:00:00 32.3 2 Sur 5 Sur 0 -- -- 27
2020-08-05 21:00:00 34.1 0 Calma 8 Sur 0 -- -- 24
2020-08-05 20:00:00 35.2 4 Sudoeste 10 Sur 0 -- -- 21
2020-08-05 19:00:00 36.5 4 Sur 22 Sur 0 -- -- 20
2020-08-05 18:00:00 37.4 7 Sudoeste 19 Sudoeste 0 -- -- 20
2020-08-05 17:00:00 37.6 7 Sudoeste 15 Sudoeste 0 -- -- 21
2020-08-05 16:00:00 36.7 5 Este 13 Sudoeste 0 -- -- 22
2020-08-05 15:00:00 35.5 4 Sur 18 Sur 0 -- -- 24
2020-08-05 14:00:00 35 5 Sur 16 Sur 0 -- -- 26
2020-08-05 13:00:00 32.9 5 Sur 14 Sudeste 0 -- -- 31
2020-08-05 12:00:00 30.5 4 Este 14 Sur 0 -- -- 43
2020-08-05 11:00:00 28.2 5 Sudeste 21 Sudeste 0 -- -- 51
2020-08-05 10:00:00 24.5 7 Sudeste 18 Sudeste 0 -- -- 67
2020-08-05 09:00:00 22 8 Sudeste 23 Sudeste 0 -- -- 78
2020-08-05 08:00:00 21.1 8 Sudeste 20 Sudeste 0 -- -- 81
2020-08-05 07:00:00 21.2 7 Sudeste 23 Este 0 -- -- 81
2020-08-05 06:00:00 21.7 7 Sudeste 21 Este 0 -- -- 80
2020-08-05 05:00:00 22.4 8 Sudeste 19 Sudeste 0 -- -- 77
2020-08-05 04:00:00 23.1 5 Sudeste 19 Este 0 -- -- 72
2020-08-05 03:00:00 23.9 6 Sudeste 21 Nordeste 0 -- -- 67
2020-08-05 02:00:00 25.5 4 Sur 16 Este 0 -- -- 45
2020-08-05 01:00:00 27.4 3 Nordeste 7 Este 0 -- -- 26
2020-08-05 00:00:00 28.6 0 Calma 11 Este 0 -- -- 24
2020-08-04 23:00:00 28.9 6 Nordeste 12 Nordeste 0 -- -- 24
2020-08-04 22:00:00 30.4 4 Nordeste 13 Nordeste 0 -- -- 23
2020-08-04 21:00:00 31.6 4 Norte 15 Norte 0 -- -- 23
2020-08-04 20:00:00 32.4 5 Norte 18 Nordeste 0 -- -- 22
2020-08-04 19:00:00 33.4 8 Norte 15 Norte 0 -- -- 22
2020-08-04 18:00:00 34.9 5 Sur 21 Nordeste 0 -- -- 20
2020-08-04 17:00:00 33.6 10 Norte 24 Nordeste 0 -- -- 22
2020-08-04 16:00:00 33.6 5 Norte 23 Norte 0 -- -- 24
2020-08-04 15:00:00 33 6 Norte 19 Este 0 -- -- 25
2020-08-04 14:00:00 32.1 5 Norte 22 Nordeste 0 -- -- 27
2020-08-04 13:00:00 30.2 7 Nordeste 19 Nordeste 0 -- -- 33
2020-08-04 12:00:00 28.9 5 Este 16 Este 0 -- -- 40
2020-08-04 11:00:00 26.6 5 Este 19 Nordeste 0 -- -- 49
2020-08-04 10:00:00 24.5 7 Este 19 Nordeste 0 -- -- 52
2020-08-04 09:00:00 22.3 4 Nordeste 16 Este 0 -- -- 52
2020-08-04 08:00:00 21.6 5 Nordeste 12 Nordeste 0 -- -- 60
2020-08-04 07:00:00 21.2 4 Nordeste 12 Nordeste 0 -- -- 52
2020-08-04 06:00:00 21.1 4 Nordeste 14 Nordeste 0 -- -- 45
2020-08-04 05:00:00 21.2 4 Norte 11 Nordeste 0 -- -- 39
2020-08-04 04:00:00 21.9 4 Nordeste 14 Nordeste 0 -- -- 35
2020-08-04 03:00:00 23 5 Nordeste 26 Nordeste 0 -- -- 33
2020-08-04 02:00:00 24.2 8 Nordeste 20 Nordeste 0 -- -- 31
2020-08-04 01:00:00 25.1 8 Norte 17 Nordeste 0 -- -- 29
2020-08-04 00:00:00 26.6 3 Norte 6 Nordeste 0 -- -- 27
2020-08-03 23:00:00 28.3 3 Norte 10 Nordeste 0 -- -- 26
2020-08-03 22:00:00 29.6 5 Norte 12 Norte 0 -- -- 24
2020-08-03 21:00:00 30.9 5 Norte 20 Noroeste 0 -- -- 22
2020-08-03 20:00:00 31.7 5 Noroeste 19 Norte 0 -- -- 22
2020-08-03 19:00:00 32.7 9 Noroeste 24 Nordeste 0 -- -- 22
2020-08-03 18:00:00 33.5 7 Norte 24 Nordeste 0 -- -- 21
2020-08-03 17:00:00 33.5 7 Norte 21 Norte 0 -- -- 21
2020-08-03 16:00:00 32.8 8 Norte 24 Norte 0 -- -- 20
2020-08-03 15:00:00 31.7 13 Norte 28 Norte 0 -- -- 22
2020-08-03 14:00:00 31.1 11 Norte 28 Noroeste 0 -- -- 23
2020-08-03 13:00:00 29.7 13 Norte 28 Norte 0 -- -- 26
2020-08-03 12:00:00 28.4 12 Norte 22 Nordeste 0 -- -- 31
2020-08-03 11:00:00 26.7 8 Nordeste 21 Norte 0 -- -- 36
2020-08-03 10:00:00 24.1 7 Norte 19 Noroeste 0 -- -- 45
2020-08-03 09:00:00 21.4 6 Norte 16 Nordeste 0 -- -- 53
2020-08-03 08:00:00 21.1 5 Norte 15 Norte 0 -- -- 50
2020-08-03 07:00:00 21.4 4 Norte 11 Noroeste 0 -- -- 49
2020-08-03 06:00:00 22.2 4 Norte 10 Norte 0 -- -- 49
2020-08-03 05:00:00 22.9 3 Norte 15 Noroeste 0 -- -- 47
2020-08-03 04:00:00 23.6 7 Norte 17 Norte 0 -- -- 44
2020-08-03 03:00:00 24.7 5 Norte 22 Nordeste 0 -- -- 39
2020-08-03 02:00:00 25.8 10 Norte 27 Norte 0 -- -- 39
2020-08-03 01:00:00 27.2 5 Noroeste 13 Noroeste 0 -- -- 29
2020-08-03 00:00:00 28.3 3 Noroeste 10 Norte 0 -- -- 20
2020-08-02 23:00:00 29.8 4 Oeste 10 Oeste 0 -- -- 16
2020-08-02 22:00:00 31.5 4 Oeste 17 Sudoeste 0 -- -- 15
2020-08-02 21:00:00 33.8 6 Sudoeste 23 Oeste 0 -- -- 13
2020-08-02 20:00:00 35.7 8 Oeste 27 Oeste 0 -- -- 11
2020-08-02 19:00:00 37.5 10 Oeste 28 Sudoeste 0 -- -- 8
2020-08-02 18:00:00 39 10 Oeste 28 Oeste 0 -- -- 9
2020-08-02 17:00:00 39.1 10 Noroeste 28 Oeste 0 -- -- 11
2020-08-02 16:00:00 38.3 10 Oeste 28 Sudoeste 0 -- -- 14
2020-08-02 15:00:00 37.7 9 Sudoeste 37 Sur 0 -- -- 15
2020-08-02 14:00:00 36.4 9 Sudoeste 25 Oeste 0 -- -- 16
2020-08-02 13:00:00 35.3 10 Sudoeste 23 Sur 0 -- -- 21
2020-08-02 12:00:00 33.9 7 Sudoeste 18 Sudoeste 0 -- -- 25
2020-08-02 11:00:00 30.5 5 Sudoeste 16 Sur 0 -- -- 32
2020-08-02 10:00:00 25.7 8 Sur 19 Sudoeste 0 -- -- 34
2020-08-02 09:00:00 23.1 7 Sur 11 Sur 0 -- -- 31
2020-08-02 08:00:00 22.1 3 Sur 6 Sur 0 -- -- 29
2020-08-02 07:00:00 22 2 Sur 12 Sudoeste 0 -- -- 28
2020-08-02 06:00:00 23.6 3 Sur 7 Sudoeste 0 -- -- 28
2020-08-02 05:00:00 23.8 0 Calma 6 Sudoeste 0 -- -- 26
2020-08-02 04:00:00 24.7 5 Sur 8 Sur 0 -- -- 22
2020-08-02 03:00:00 25.8 2 Sudoeste 4 Sur 0 -- -- 23
2020-08-02 02:00:00 26.7 0 Calma 3 Sur 0 -- -- 22
2020-08-02 01:00:00 27.6 2 Norte 4 Norte 0 -- -- 20
2020-08-02 00:00:00 28.9 0 Calma 8 Sur 0 -- -- 16
2020-08-01 23:00:00 30.9 2 Oeste 6 Oeste 0 -- -- 16
2020-08-01 22:00:00 33.2 2 Oeste 10 Sudoeste 0 -- -- 14
2020-08-01 21:00:00 35.6 5 Oeste 22 Oeste 0 -- -- 10
2020-08-01 20:00:00 37.3 8 Oeste 20 Sudoeste 0 -- -- 8
2020-08-01 19:00:00 38.9 8 Oeste 28 Oeste 0 -- -- 8
2020-08-01 18:00:00 40.1 10 Oeste 32 Oeste 0 -- -- 7
2020-08-01 17:00:00 40.3 10 Noroeste 26 Noroeste 0 -- -- 7
2020-08-01 16:00:00 39.9 9 Oeste 24 Sur 0 -- -- 8
2020-08-01 15:00:00 39.2 10 Oeste 25 Oeste 0 -- -- 10
2020-08-01 14:00:00 37.5 6 Sudoeste 22 Oeste 0 -- -- 17
2020-08-01 13:00:00 36.3 8 Sudoeste 23 Sur 0 -- -- 20
2020-08-01 12:00:00 34.5 7 Oeste 18 Sur 0 -- -- 23
2020-08-01 11:00:00 31.9 5 Sudoeste 13 Sur 0 -- -- 28
2020-08-01 10:00:00 27.7 5 Sudoeste 10 Sur 0 -- -- 37
2020-08-01 09:00:00 24.9 5 Sur 11 Sur 0 -- -- 40
2020-08-01 08:00:00 24.3 2 Sur 4 Sur 0 -- -- 38
2020-08-01 07:00:00 24.1 3 Norte 10 Sudoeste 0 -- -- 37
2020-08-01 06:00:00 25.5 3 Sudoeste 12 Sur 0 -- -- 33
2020-08-01 05:00:00 26.7 0 Calma 8 Sudoeste 0 -- -- 28
2020-08-01 04:00:00 28 3 Sur 11 Sudoeste 0 -- -- 27
2020-08-01 03:00:00 28.1 3 Sur 12 Sur 0 -- -- 25
2020-08-01 02:00:00 28.9 5 Sur 14 Sur 0 -- -- 23
2020-08-01 01:00:00 30.3 0 Calma 6 Nordeste 0 -- -- 17
2020-08-01 00:00:00 31.6 3 Norte 11 Noroeste 0 -- -- 17
2020-07-31 23:00:00 32.2 0 Calma 8 Sudoeste 0 -- -- 18
2020-07-31 22:00:00 34.3 3 Sudoeste 13 Oeste 0 -- -- 16
2020-07-31 21:00:00 37 5 Oeste 15 Oeste 0 -- -- 15
2020-07-31 20:00:00 38.4 6 Oeste 27 Oeste 0 -- -- 13
2020-07-31 19:00:00 39.7 10 Sudoeste 26 Sudoeste 0 -- -- 14
2020-07-31 18:00:00 40.7 6 Sudoeste 20 Oeste 0 -- -- 14
2020-07-31 17:00:00 40.5 9 Sudoeste 18 Sur 0 -- -- 15
2020-07-31 16:00:00 39.2 4 Sur 15 Nordeste 0 -- -- 18
2020-07-31 15:00:00 37.7 5 Norte 20 Sudoeste 0 -- -- 21
2020-07-31 14:00:00 36.5 5 Nordeste 19 Sudoeste 0 -- -- 24
2020-07-31 13:00:00 35.9 5 Oeste 24 Sur 0 -- -- 26
2020-07-31 12:00:00 34.7 7 Sudoeste 18 Sudoeste 0 -- -- 28
2020-07-31 11:00:00 31.6 3 Sudoeste 9 Sur 0 -- -- 33
2020-07-31 10:00:00 27.6 3 Sudoeste 8 Sudoeste 0 -- -- 40
2020-07-31 09:00:00 24.8 0 Calma 8 Sur 0 -- -- 49
2020-07-31 08:00:00 23.7 0 Calma 9 Este 0 -- -- 53
2020-07-31 07:00:00 23.8 2 Sudeste 10 Sudeste 0 -- -- 52
2020-07-31 06:00:00 24.4 4 Sudeste 12 Sudeste 0 -- -- 51
2020-07-31 05:00:00 24.8 3 Sur 12 Sudeste 0 -- -- 51
2020-07-31 04:00:00 26.2 3 Sudeste 13 Sudeste 0 -- -- 43
2020-07-31 03:00:00 26.9 3 Sudeste 12 Sudeste 0 -- -- 34
2020-07-31 02:00:00 27.8 4 Sudeste 11 Sudeste 0 -- -- 32
2020-07-31 01:00:00 28.6 3 Sur 10 Sur 0 -- -- 31
2020-07-31 00:00:00 29.9 2 Sur 10 Este 0 -- -- 29
2020-07-30 23:00:00 31.3 4 Sudeste 21 Sudeste 0 -- -- 28
2020-07-30 22:00:00 33.4 5 Sudeste 17 Sudeste 0 -- -- 26
2020-07-30 21:00:00 36.4 7 Oeste 32 Oeste 0 -- -- 23
2020-07-30 20:00:00 38.1 10 Sudoeste 28 Oeste 0 -- -- 19
2020-07-30 19:00:00 39.7 11 Sudoeste 35 Oeste 0 -- -- 16
2020-07-30 18:00:00 40.9 15 Sudoeste 33 Oeste 0 -- -- 15
2020-07-30 17:00:00 41.5 13 Sudoeste 32 Oeste 0 -- -- 17
2020-07-30 16:00:00 40.9 14 Sur 28 Sudoeste 0 -- -- 18
2020-07-30 15:00:00 38.7 8 Este 28 Sudeste 0 -- -- 21
2020-07-30 14:00:00 37 8 Sudeste 32 Este 0 -- -- 25
2020-07-30 13:00:00 35.1 9 Sudeste 27 Sudeste 0 -- -- 28
2020-07-30 12:00:00 32.3 7 Sudeste 20 Este 0 -- -- 34
2020-07-30 11:00:00 29 9 Sudeste 24 Este 0 -- -- 41
2020-07-30 10:00:00 25.5 9 Sudeste 29 Sudeste 0 -- -- 49
2020-07-30 09:00:00 23.1 8 Sudeste 22 Este 0 -- -- 56
2020-07-30 08:00:00 22.4 7 Sur 21 Este 0 -- -- 61
2020-07-30 07:00:00 22.6 6 Sudeste 26 Este 0 -- -- 62
2020-07-30 06:00:00 23 5 Sudeste 20 Sudeste 0 -- -- 60
2020-07-30 05:00:00 23.4 7 Sudeste 26 Sudeste 0 -- -- 59
2020-07-30 04:00:00 23.8 8 Sudeste 24 Este 0 -- -- 57
2020-07-30 03:00:00 24.6 10 Sur 30 Sudeste 0 -- -- 55
2020-07-30 02:00:00 25.6 9 Sudeste 30 Este 0 -- -- 54
2020-07-30 01:00:00 27 10 Sudeste 38 Sudeste 0 -- -- 52
2020-07-30 00:00:00 28.8 10 Sudeste 33 Este 0 -- -- 49
2020-07-29 23:00:00 30.5 8 Sudeste 34 Este 0 -- -- 47
2020-07-29 22:00:00 33.2 9 Este 25 Este 0 -- -- 40
2020-07-29 21:00:00 35.8 5 Sudeste 19 Nordeste 0 -- -- 24
2020-07-29 20:00:00 36.9 6 Sudeste 20 Sur 0 -- -- 23
2020-07-29 19:00:00 38.1 7 Sudeste 19 Este 0 -- -- 23
2020-07-29 18:00:00 39 6 Este 19 Este 0 -- -- 21
2020-07-29 17:00:00 38.6 6 Este 21 Nordeste 0 -- -- 21
2020-07-29 16:00:00 38.4 4 Sudoeste 19 Nordeste 0 -- -- 21
2020-07-29 15:00:00 37.5 7 Este 22 Sur 0 -- -- 21
2020-07-29 14:00:00 36.3 8 Sudeste 24 Sudeste 0 -- -- 25
2020-07-29 13:00:00 34.7 7 Sudeste 22 Sudeste 0 -- -- 27
2020-07-29 12:00:00 31.8 7 Sudeste 24 Sudeste 0 -- -- 34
2020-07-29 11:00:00 29.1 9 Sudeste 22 Sudeste 0 -- -- 41
2020-07-29 10:00:00 26.1 9 Sudeste 23 Sudeste 0 -- -- 47
2020-07-29 09:00:00 23.7 7 Sudeste 22 Este 0 -- -- 51
2020-07-29 08:00:00 22.8 6 Sudeste 23 Sudeste 0 -- -- 51
2020-07-29 07:00:00 23 6 Sudeste 26 Sudeste 0 -- -- 49
2020-07-29 06:00:00 23.3 7 Sudeste 24 Sudeste 0 -- -- 48
2020-07-29 05:00:00 24.1 7 Sudeste 25 Este 0 -- -- 47
2020-07-29 04:00:00 24.9 6 Sudeste 21 Sudeste 0 -- -- 47
2020-07-29 03:00:00 25.8 7 Sudeste 22 Este 0 -- -- 45
2020-07-29 02:00:00 27.1 6 Sudeste 20 Sudeste 0 -- -- 45
2020-07-29 01:00:00 28.6 5 Sudeste 17 Sudeste 0 -- -- 42
2020-07-29 00:00:00 30.4 3 Sudeste 11 Nordeste 0 -- -- 31
2020-07-28 23:00:00 31.7 2 Nordeste 9 Norte 0 -- -- 28
2020-07-28 22:00:00 33.2 5 Norte 10 Norte 0 -- -- 26
2020-07-28 21:00:00 34.5 4 Norte 12 Noroeste 0 -- -- 24
2020-07-28 20:00:00 35.5 4 Noroeste 19 Sudoeste 0 -- -- 22
2020-07-28 19:00:00 37.2 8 Sudoeste 23 Oeste 0 -- -- 19
2020-07-28 18:00:00 37.9 11 Sudoeste 27 Sur 0 -- -- 17
2020-07-28 17:00:00 38.1 10 Sudoeste 24 Sur 0 -- -- 19
2020-07-28 16:00:00 37.8 8 Sudoeste 26 Sur 0 -- -- 20
2020-07-28 15:00:00 37.1 12 Sudoeste 27 Sudoeste 0 -- -- 22
2020-07-28 14:00:00 36 11 Sudoeste 30 Sudoeste 0 -- -- 25
2020-07-28 13:00:00 34.9 7 Oeste 25 Oeste 0 -- -- 28
2020-07-28 12:00:00 33.7 8 Sudoeste 21 Sur 0 -- -- 32
2020-07-28 11:00:00 31.9 7 Sur 14 Sur 0 -- -- 35
2020-07-28 10:00:00 28.4 6 Sudoeste 13 Sur 0 -- -- 37
2020-07-28 09:00:00 25 6 Sur 12 Sur 0 -- -- 40
2020-07-28 08:00:00 24.1 5 Sur 10 Sudoeste 0 -- -- 40
2020-07-28 07:00:00 24.2 5 Sur 10 Sur 0 -- -- 37
2020-07-28 06:00:00 24.9 4 Sur 9 Sur 0 -- -- 35
2020-07-28 05:00:00 26 6 Sur 11 Sudoeste 0 -- -- 34
2020-07-28 04:00:00 26.9 5 Sur 11 Sudoeste 0 -- -- 31
2020-07-28 03:00:00 28.5 3 Sur 6 Sur 0 -- -- 28
2020-07-28 02:00:00 29.7 2 Sudoeste 6 Sudoeste 0 -- -- 27
2020-07-28 01:00:00 30.8 3 Sudoeste 8 Oeste 0 -- -- 25
2020-07-28 00:00:00 32.2 4 Sudoeste 10 Oeste 0 -- -- 23
2020-07-27 23:00:00 34.5 5 Sudoeste 16 Sur 0 -- -- 22
2020-07-27 22:00:00 36.3 4 Sudoeste 18 Sudeste 0 -- -- 24
2020-07-27 21:00:00 38.4 5 Sur 21 Oeste 0 -- -- 19
2020-07-27 20:00:00 39.4 13 Sudoeste 31 Sur 0 -- -- 18
2020-07-27 19:00:00 40.6 6 Sudoeste 23 Sur 0 -- -- 17
2020-07-27 18:00:00 41.2 10 Sur 31 Sur 0 -- -- 16
2020-07-27 17:00:00 41.7 6 Sudoeste 15 Oeste 0 -- -- 17
2020-07-27 16:00:00 40.4 9 Sur 19 Sur 0 -- -- 18
2020-07-27 15:00:00 39.9 9 Sur 20 Sudoeste 0 -- -- 18
2020-07-27 14:00:00 38.4 6 Sudeste 17 Este 0 -- -- 21
2020-07-27 13:00:00 37.3 6 Sudoeste 19 Sur 0 -- -- 23
2020-07-27 12:00:00 35.1 8 Sudoeste 19 Sur 0 -- -- 25
2020-07-27 09:00:00 -- -- -- -- -- -- -- -- --
2020-07-27 08:00:00 -- -- -- -- -- -- -- -- --
2020-07-27 07:00:00 23.4 6 Sur 21 Sudeste 0 -- -- 53
2020-07-27 06:00:00 23.7 8 Sudeste 22 Sudeste 0 -- -- 53
2020-07-27 05:00:00 24.8 8 Sudeste 23 Este 0 -- -- 52
2020-07-27 04:00:00 25.7 8 Sudeste 22 Sudeste 0 -- -- 44
2020-07-27 03:00:00 26.8 6 Sur 21 Sudeste 0 -- -- 40
2020-07-27 02:00:00 28.5 5 Este 15 Nordeste 0 -- -- 42
2020-07-27 01:00:00 30.5 5 Sudeste 17 Sudeste 0 -- -- 36
2020-07-27 00:00:00 31.9 4 Sudeste 17 Sudeste 0 -- -- 30
2020-07-26 23:00:00 33.5 3 Sudeste 12 Sudeste 0 -- -- 22
2020-07-26 22:00:00 35 2 Sudeste 7 Sur 0 -- -- 20
2020-07-26 21:00:00 37.4 3 Sudoeste 12 Sur 0 -- -- 18
2020-07-26 20:00:00 38.6 6 Sudoeste 18 Sur 0 -- -- 16
2020-07-26 19:00:00 39.7 6 Sudoeste 21 Oeste 0 -- -- 15
2020-07-26 18:00:00 41 5 Sudoeste 24 Sudoeste 0 -- -- 13
2020-07-26 17:00:00 40.6 9 Sur 19 Sudoeste 0 -- -- 13
2020-07-26 16:00:00 40.2 10 Sur 18 Sur 0 -- -- 13
2020-07-26 15:00:00 38.8 7 Sur 18 Sur 0 -- -- 17
2020-07-26 14:00:00 37.6 3 Nordeste 11 Sur 0 -- -- 19
2020-07-26 13:00:00 35.4 3 Norte 7 Sur 0 -- -- 23
2020-07-26 12:00:00 32.3 4 Norte 10 Norte 0 -- -- 31
2020-07-26 11:00:00 29.5 3 Sudeste 7 Sur 0 -- -- 40
2020-07-26 10:00:00 26.1 3 Sudeste 12 Sudeste 0 -- -- 50
2020-07-26 09:00:00 23.2 4 Sudeste 12 Sudeste 0 -- -- 61
2020-07-26 08:00:00 22.5 4 Sudeste 11 Este 0 -- -- 65
2020-07-26 07:00:00 23.2 4 Sudeste 13 Sudeste 0 -- -- 61
2020-07-26 06:00:00 24.1 3 Sudeste 12 Sudeste 0 -- -- 55
2020-07-26 05:00:00 25 2 Este 8 Nordeste 0 -- -- 52
2020-07-26 04:00:00 25.4 0 Calma 10 Sudeste 0 -- -- 38
2020-07-26 03:00:00 25.9 2 Sur 4 Sur 0 -- -- 33
2020-07-26 02:00:00 27.3 0 Calma 5 Noroeste 0 -- -- 31
2020-07-26 01:00:00 28.8 3 Nordeste 9 Norte 0 -- -- 28
2020-07-26 00:00:00 30.5 5 Nordeste 14 Norte 0 -- -- 25
2020-07-25 23:00:00 31.9 5 Norte 9 Norte 0 -- -- 24
2020-07-25 22:00:00 33.8 4 Norte 11 Noroeste 0 -- -- 20
2020-07-25 21:00:00 35.8 3 Oeste 19 Noroeste 0 -- -- 19
2020-07-25 20:00:00 37 4 Sudoeste 19 Sur 0 -- -- 19
2020-07-25 19:00:00 38.2 7 Sudoeste 21 Oeste 0 -- -- 18
2020-07-25 18:00:00 39.5 6 Sudoeste 21 Sudoeste 0 -- -- 17
2020-07-25 17:00:00 39.1 9 Sudoeste 27 Sudoeste 0 -- -- 15
2020-07-25 16:00:00 38.6 9 Sudoeste 30 Sur 0 -- -- 16
2020-07-25 15:00:00 37.5 7 Oeste 22 Oeste 0 -- -- 20
2020-07-25 14:00:00 36.3 4 Norte 13 Sur 0 -- -- 22
2020-07-25 13:00:00 33.6 6 Sudoeste 17 Sur 0 -- -- 28
2020-07-25 12:00:00 30.9 4 Sudeste 16 Sudeste 0 -- -- 34
2020-07-25 11:00:00 28.5 6 Sur 13 Sudeste 0 -- -- 40
2020-07-25 10:00:00 25.2 4 Sudeste 15 Este 0 -- -- 46
2020-07-25 09:00:00 22.7 4 Sudeste 12 Nordeste 0 -- -- 49
2020-07-25 08:00:00 21.7 2 Nordeste 14 Sudeste 0 -- -- 50
2020-07-25 07:00:00 21.9 5 Sudeste 17 Sudeste 0 -- -- 47
2020-07-25 06:00:00 22.6 5 Este 21 Sudeste 0 -- -- 53
2020-07-25 05:00:00 23.6 5 Sudeste 17 Sudeste 0 -- -- 59
2020-07-25 04:00:00 25 4 Sudeste 22 Este 0 -- -- 58
2020-07-25 03:00:00 26.7 5 Sudeste 12 Sudeste 0 -- -- 49
2020-07-25 02:00:00 27.2 4 Noroeste 8 Norte 0 -- -- 26
2020-07-25 01:00:00 28.7 2 Noroeste 7 Norte 0 -- -- 27
2020-07-25 00:00:00 30 4 Norte 13 Norte 0 -- -- 25
2020-07-24 23:00:00 31.5 6 Norte 15 Norte 0 -- -- 22
2020-07-24 22:00:00 33.1 4 Noroeste 13 Noroeste 0 -- -- 21
2020-07-24 21:00:00 35.1 7 Noroeste 21 Noroeste 0 -- -- 20
2020-07-24 20:00:00 36.4 6 Oeste 21 Sudoeste 0 -- -- 21
2020-07-24 19:00:00 37.4 11 Oeste 27 Oeste 0 -- -- 20
2020-07-24 18:00:00 38.2 6 Oeste 19 Oeste 0 -- -- 20
2020-07-24 17:00:00 38.5 8 Noroeste 25 Sur 0 -- -- 18
2020-07-24 16:00:00 37.7 9 Sur 21 Oeste 0 -- -- 22
2020-07-24 15:00:00 37.8 6 Sur 19 Oeste 0 -- -- 23
2020-07-24 14:00:00 36.7 10 Sur 19 Sur 0 -- -- 24
2020-07-24 13:00:00 35.7 6 Sur 14 Sur 0 -- -- 25
2020-07-24 12:00:00 33.5 4 Oeste 12 Oeste 0 -- -- 28
2020-07-24 11:00:00 30.5 4 Sudoeste 9 Oeste 0 -- -- 33
2020-07-24 10:00:00 26.9 3 Oeste 9 Sur 0 -- -- 39
2020-07-24 09:00:00 23.7 3 Sudoeste 6 Sur 0 -- -- 47
2020-07-24 08:00:00 22.8 2 Sur 10 Sur 0 -- -- 48
2020-07-24 07:00:00 23.6 3 Sudeste 8 Sur 0 -- -- 46
2020-07-24 06:00:00 24.2 0 Calma 8 Este 0 -- -- 43
2020-07-24 05:00:00 24.9 3 Sur 19 Sur 0 -- -- 40
2020-07-24 04:00:00 26.4 2 Nordeste 8 Norte 0 -- -- 38
2020-07-24 03:00:00 26.8 4 Norte 8 Norte 0 -- -- 37
2020-07-24 02:00:00 27.6 4 Norte 8 Norte 0 -- -- 35
2020-07-24 01:00:00 28.7 3 Noroeste 9 Norte 0 -- -- 32
2020-07-24 00:00:00 29.4 0 Calma 13 Norte 0 -- -- 31
2020-07-23 23:00:00 30.5 3 Norte 10 Norte 0 -- -- 30
2020-07-23 22:00:00 32.3 3 Sudoeste 8 Sur 0 -- -- 27
2020-07-23 21:00:00 34 5 Sudoeste 13 Sur 0 -- -- 26
2020-07-23 20:00:00 35.1 6 Sur 15 Sur 0 -- -- 25
2020-07-23 19:00:00 36 6 Sur 15 Oeste 0 -- -- 24
2020-07-23 18:00:00 37.1 5 Sur 16 Sudoeste 0 -- -- 22
2020-07-23 17:00:00 37 6 Oeste 18 Oeste 0 -- -- 22
2020-07-23 16:00:00 35.2 6 Norte 18 Nordeste 0 -- -- 24
2020-07-23 15:00:00 35.2 4 Noroeste 15 Oeste 0 -- -- 24
2020-07-23 14:00:00 33.8 6 Norte 13 Oeste 0 -- -- 27
2020-07-23 13:00:00 33.2 5 Sudoeste 11 Sudoeste 0 -- -- 31
2020-07-23 12:00:00 30.3 4 Oeste 8 Sudeste 0 -- -- 37
2020-07-23 11:00:00 27.7 4 Sudeste 11 Sudeste 0 -- -- 40
2020-07-23 10:00:00 24.9 5 Sur 15 Este 0 -- -- 43
2020-07-23 09:00:00 22.1 5 Sudeste 14 Sudeste 0 -- -- 45
2020-07-23 08:00:00 20.9 5 Sudeste 15 Sudeste 0 -- -- 47
2020-07-23 07:00:00 20.9 4 Sudeste 15 Sudeste 0 -- -- 49
2020-07-23 06:00:00 21.4 4 Sudeste 14 Sudeste 0 -- -- 48
2020-07-23 05:00:00 21.9 3 Sudeste 16 Sudeste 0 -- -- 47
2020-07-23 04:00:00 22.4 5 Sudeste 16 Sudeste 0 -- -- 45
2020-07-23 03:00:00 23.3 5 Sudeste 18 Sudeste 0 -- -- 44
2020-07-23 02:00:00 24.2 5 Sudeste 20 Sudeste 0 -- -- 44
2020-07-23 01:00:00 25.1 6 Sudeste 21 Sudeste 0 -- -- 44
2020-07-23 00:00:00 26.1 8 Sudeste 24 Este 0 -- -- 44
2020-07-22 23:00:00 27.4 8 Sudeste 24 Sudeste 0 -- -- 42
2020-07-22 22:00:00 29 9 Sudeste 29 Sudeste 0 -- -- 40
2020-07-22 21:00:00 31.1 5 Sudeste 18 Sur 0 -- -- 35
2020-07-22 20:00:00 32.8 3 Nordeste 15 Norte 0 -- -- 26
2020-07-22 19:00:00 33.3 3 Noroeste 11 Oeste 0 -- -- 26
2020-07-22 18:00:00 33.9 4 Oeste 13 Este 0 -- -- 25
2020-07-22 17:00:00 35 7 Sudoeste 17 Norte 0 -- -- 24
2020-07-22 16:00:00 33.9 9 Sur 16 Sur 0 -- -- 27
2020-07-22 15:00:00 32.6 6 Sudeste 15 Sudeste 0 -- -- 31
2020-07-22 14:00:00 31.2 4 Este 23 Este 0 -- -- 34
2020-07-22 13:00:00 30.4 6 Sur 24 Sudeste 0 -- -- 37
2020-07-22 12:00:00 28.3 6 Sudeste 20 Sudeste 0 -- -- 42
2020-07-22 11:00:00 26.3 8 Sudeste 24 Sudeste 0 -- -- 50
2020-07-22 10:00:00 23.5 6 Sudeste 25 Sudeste 0 -- -- 60
2020-07-22 09:00:00 21.3 6 Sudeste 25 Sudeste 0 -- -- 67
2020-07-22 08:00:00 20.4 6 Sudeste 20 Sur 0 -- -- 69
2020-07-22 07:00:00 20.5 6 Sudeste 19 Este 0 -- -- 68
2020-07-22 06:00:00 21.2 6 Sudeste 19 Sudeste 0 -- -- 64
2020-07-22 05:00:00 22.2 6 Sudeste 21 Sudeste 0 -- -- 53
2020-07-22 04:00:00 22.8 6 Sudeste 22 Sudeste 0 -- -- 49
2020-07-22 03:00:00 23.7 7 Sudeste 30 Sudeste 0 -- -- 45
2020-07-22 02:00:00 24.8 9 Sudeste 26 Sudeste 0 -- -- 41
2020-07-22 01:00:00 26.5 10 Sudeste 30 Sudeste 0 -- -- 35
2020-07-22 00:00:00 27.7 9 Sudeste 26 Sudeste 0 -- -- 31
2020-07-21 23:00:00 28.9 7 Sudeste 29 Sudeste 0 -- -- 27
2020-07-21 22:00:00 30.3 8 Sudeste 27 Este 0 -- -- 26
2020-07-21 21:00:00 31.7 8 Sudeste 29 Sur 0 -- -- 27
2020-07-21 20:00:00 33.9 10 Sudeste 27 Sudeste 0 -- -- 23
2020-07-21 19:00:00 35.8 9 Sudeste 29 Sudeste 0 -- -- 20
2020-07-21 18:00:00 35.4 7 Sudeste 25 Nordeste 0 -- -- 20
2020-07-21 17:00:00 34.7 6 Sudeste 24 Nordeste 0 -- -- 27
2020-07-21 16:00:00 35.9 7 Este 23 Este 0 -- -- 25
2020-07-21 15:00:00 34.5 4 Este 15 Nordeste 0 -- -- 23
2020-07-21 14:00:00 33.9 5 Sudeste 13 Sudeste 0 -- -- 26
2020-07-21 13:00:00 33.8 6 Sudeste 21 Sudeste 0 -- -- 28
2020-07-21 12:00:00 30.5 7 Sudeste 22 Sur 0 -- -- 37
2020-07-21 11:00:00 27.5 8 Sudeste 24 Sudeste 0 -- -- 47
2020-07-21 10:00:00 24.6 10 Sudeste 27 Sudeste 0 -- -- 57
2020-07-21 09:00:00 21.8 8 Sudeste 23 Sudeste 0 -- -- 68
2020-07-21 08:00:00 20.5 7 Sudeste 22 Sudeste 0 -- -- 74
2020-07-21 07:00:00 20.5 7 Sudeste 23 Este 0 -- -- 72
2020-07-21 06:00:00 21.1 8 Sudeste 24 Sudeste 0 -- -- 67
2020-07-21 05:00:00 21.9 8 Sudeste 23 Sudeste 0 -- -- 64
2020-07-21 04:00:00 22.8 7 Sudeste 31 Este 0 -- -- 62
2020-07-21 03:00:00 24.4 9 Sudeste 24 Este 0 -- -- 57
2020-07-21 02:00:00 26.1 8 Sudeste 23 Sudeste 0 -- -- 46
2020-07-21 01:00:00 27.7 7 Sudeste 20 Este 0 -- -- 45
2020-07-21 00:00:00 29.4 7 Sudeste 21 Sudeste 0 -- -- 35
2020-07-20 23:00:00 30.9 6 Sudeste 15 Sudeste 0 -- -- 32
2020-07-20 22:00:00 32.9 6 Sudeste 22 Sudeste 0 -- -- 30
2020-07-20 21:00:00 35.3 5 Sudeste 15 Sur 0 -- -- 17
2020-07-20 20:00:00 36.4 3 Sur 12 Sudeste 0 -- -- 16
2020-07-20 19:00:00 37.9 3 Sur 17 Sur 0 -- -- 15
2020-07-20 18:00:00 38.7 6 Sudoeste 17 Sur 0 -- -- 15
2020-07-20 17:00:00 38.3 8 Sur 22 Sudoeste 0 -- -- 15
2020-07-20 16:00:00 37.9 4 Sudoeste 15 Sudeste 0 -- -- 16
2020-07-20 15:00:00 37.2 5 Oeste 20 Oeste 0 -- -- 16
2020-07-20 14:00:00 36 6 Sur 17 Este 0 -- -- 18
2020-07-20 13:00:00 34.3 4 Sur 14 Sur 0 -- -- 20
2020-07-20 12:00:00 32.5 5 Sur 13 Sudeste 0 -- -- 26
2020-07-20 11:00:00 29.2 5 Sur 13 Sur 0 -- -- 35
2020-07-20 10:00:00 25.4 5 Sur 11 Sudeste 0 -- -- 49
2020-07-20 09:00:00 22.3 4 Sudeste 15 Sudeste 0 -- -- 59
2020-07-20 08:00:00 20.6 3 Sur 12 Sudeste 0 -- -- 60
2020-07-20 07:00:00 20.2 4 Sudeste 12 Sudeste 0 -- -- 60
2020-07-20 06:00:00 21.8 3 Sur 5 Sur 0 -- -- 56
2020-07-20 05:00:00 22.5 0 Calma 9 Sur 0 -- -- 54
2020-07-20 04:00:00 23.2 0 Calma 4 Sur 0 -- -- 51
2020-07-20 03:00:00 24.1 0 Calma 6 Sur 0 -- -- 48
2020-07-20 02:00:00 25.2 3 Sur 9 Sur 0 -- -- 44
2020-07-20 01:00:00 26 4 Sur 14 Sur 0 -- -- 41
2020-07-20 00:00:00 27.3 4 Sudeste 12 Sudeste 0 -- -- 38
2020-07-19 23:00:00 28.4 4 Sur 9 Sur 0 -- -- 39
2020-07-19 22:00:00 29.7 6 Sur 18 Sur 0 -- -- 36
2020-07-19 21:00:00 31.6 10 Sur 26 Sur 0 -- -- 30
2020-07-19 20:00:00 33.2 13 Sur 28 Sur 0 -- -- 25
2020-07-19 19:00:00 33.1 15 Sur 50 Sur 0 -- -- 26
2020-07-19 18:00:00 34.1 23 Sur 39 Sur 0 -- -- 27
2020-07-19 17:00:00 38.2 7 Oeste 22 Oeste 0 -- -- 19
2020-07-19 16:00:00 38.4 6 Oeste 33 Oeste 0 -- -- 21
2020-07-19 15:00:00 37.9 12 Sur 35 Sur 0 -- -- 22
2020-07-19 14:00:00 36.8 7 Sudoeste 18 Sudoeste 0 -- -- 21
2020-07-19 13:00:00 35.2 8 Sur 15 Sudoeste 0 -- -- 21
2020-07-19 12:00:00 32.3 6 Sudoeste 14 Sur 0 -- -- 25
2020-07-19 11:00:00 28.5 10 Sur 16 Sur 0 -- -- 39
2020-07-19 10:00:00 25.1 9 Sur 16 Sur 0 -- -- 55
2020-07-19 09:00:00 21.7 6 Sudeste 24 Sur 0 -- -- 71
2020-07-19 08:00:00 20.2 6 Sudeste 19 Este 0 -- -- 77
2020-07-19 07:00:00 20.6 6 Sudeste 20 Sur 0 -- -- 76
2020-07-19 06:00:00 21.2 4 Sur 20 Sudeste 0 -- -- 74
2020-07-19 05:00:00 21.7 6 Sudeste 23 Sudeste 0 -- -- 69
2020-07-19 04:00:00 22.7 5 Sudeste 18 Este 0 -- -- 62
2020-07-19 03:00:00 24.3 3 Este 10 Este 0 -- -- 33
2020-07-19 02:00:00 24.9 0 Calma 12 Sur 0 -- -- 26
2020-07-19 01:00:00 27.2 0 Calma 5 Este 0 -- -- 24
2020-07-19 00:00:00 28.9 0 Calma 6 Este 0 -- -- 20
2020-07-18 23:00:00 30.2 2 Nordeste 6 Norte 0 -- -- 18
2020-07-18 22:00:00 32 2 Nordeste 12 Norte 0 -- -- 15
2020-07-18 21:00:00 34.1 6 Norte 15 Norte 0 -- -- 14
2020-07-18 20:00:00 35.1 6 Norte 22 Noroeste 0 -- -- 15
2020-07-18 19:00:00 36.4 8 Norte 23 Nordeste 0 -- -- 15
2020-07-18 18:00:00 37.1 5 Noroeste 18 Norte 0 -- -- 16
2020-07-18 17:00:00 36.8 6 Norte 21 Oeste 0 -- -- 19
2020-07-18 16:00:00 35.9 6 Noroeste 17 Norte 0 -- -- 19
2020-07-18 15:00:00 35 5 Oeste 16 Norte 0 -- -- 27
2020-07-18 14:00:00 32.6 4 Sudeste 10 Sur 0 -- -- 33
2020-07-18 13:00:00 30.2 3 Sudeste 13 Sur 0 -- -- 41
2020-07-18 12:00:00 28.2 5 Sudeste 13 Sudeste 0 -- -- 47
2020-07-18 11:00:00 25.8 5 Sudeste 17 Sudeste 0 -- -- 56
2020-07-18 10:00:00 23.2 5 Sudeste 23 Sudeste 0 -- -- 66
2020-07-18 09:00:00 20.5 6 Sudeste 21 Sur 0 -- -- 74
2020-07-18 08:00:00 19.5 5 Sudeste 22 Nordeste 0 -- -- 78
2020-07-18 07:00:00 19.7 5 Sudeste 25 Sudeste 0 -- -- 76
2020-07-18 06:00:00 20.1 6 Sudeste 22 Nordeste 0 -- -- 72
2020-07-18 05:00:00 21 5 Este 21 Este 0 -- -- 72
2020-07-18 04:00:00 21.5 5 Este 19 Nordeste 0 -- -- 69
2020-07-18 03:00:00 22.2 5 Sudeste 24 Sudeste 0 -- -- 66
2020-07-18 02:00:00 23.1 6 Sudeste 22 Sudeste 0 -- -- 64
2020-07-18 01:00:00 24.7 9 Sudeste 25 Sudeste 0 -- -- 62
2020-07-18 00:00:00 27.6 5 Sudeste 20 Este 0 -- -- 41
2020-07-17 23:00:00 30 4 Nordeste 10 Nordeste 0 -- -- 19
2020-07-17 22:00:00 31.4 4 Nordeste 14 Nordeste 0 -- -- 18
2020-07-17 21:00:00 33.3 7 Nordeste 21 Norte 0 -- -- 16
2020-07-17 20:00:00 34.2 10 Norte 26 Noroeste 0 -- -- 15
2020-07-17 19:00:00 35 10 Norte 25 Noroeste 0 -- -- 18
2020-07-17 18:00:00 36.4 10 Norte 31 Norte 0 -- -- 19
2020-07-17 17:00:00 36.2 8 Noroeste 24 Nordeste 0 -- -- 22
2020-07-17 16:00:00 35.7 8 Norte 22 Noroeste 0 -- -- 25
2020-07-17 15:00:00 34.3 7 Norte 17 Norte 0 -- -- 29
2020-07-17 14:00:00 32.9 4 Noroeste 15 Noroeste 0 -- -- 34
2020-07-17 13:00:00 30.8 5 Norte 15 Nordeste 0 -- -- 38
2020-07-17 12:00:00 29.2 8 Norte 15 Nordeste 0 -- -- 42
2020-07-17 11:00:00 26.5 3 Noroeste 9 Norte 0 -- -- 50
2020-07-17 10:00:00 24.4 4 Sudeste 14 Este 0 -- -- 57
2020-07-17 09:00:00 21.5 4 Sudeste 19 Este 0 -- -- 67
2020-07-17 08:00:00 20.3 4 Sudeste 18 Sudeste 0 -- -- 71
2020-07-17 07:00:00 20.3 4 Sur 24 Sudeste 0 -- -- 72
2020-07-17 06:00:00 20.9 6 Sudeste 21 Sudeste 0 -- -- 70
2020-07-17 05:00:00 21.6 7 Sudeste 20 Sudeste 0 -- -- 68
2020-07-17 04:00:00 22.7 5 Sudeste 22 Sur 0 -- -- 64
2020-07-17 03:00:00 24.3 6 Sudeste 20 Sudeste 0 -- -- 60
2020-07-17 02:00:00 26.4 4 Sur 12 Sur 0 -- -- 37
2020-07-17 01:00:00 27.6 2 Sur 5 Sudeste 0 -- -- 35
2020-07-17 00:00:00 28.9 2 Sudeste 7 Sudeste 0 -- -- 33
2020-07-16 23:00:00 30.3 3 Sudeste 10 Sur 0 -- -- 31
2020-07-16 22:00:00 31.7 0 Calma 10 Nordeste 0 -- -- 29
2020-07-16 21:00:00 33 5 Nordeste 15 Nordeste 0 -- -- 26
2020-07-16 20:00:00 33.5 2 Sudoeste 17 Nordeste 0 -- -- 26
2020-07-16 19:00:00 34.5 3 Nordeste 17 Norte 0 -- -- 25
2020-07-16 18:00:00 35.3 5 Norte 18 Nordeste 0 -- -- 23
2020-07-16 17:00:00 35.5 6 Norte 16 Nordeste 0 -- -- 22
2020-07-16 16:00:00 34.6 5 Norte 19 Este 0 -- -- 24
2020-07-16 15:00:00 33.5 5 Nordeste 18 Nordeste 0 -- -- 25
2020-07-16 14:00:00 32.6 5 Sudeste 18 Nordeste 0 -- -- 27
2020-07-16 13:00:00 30.3 6 Nordeste 19 Nordeste 0 -- -- 36
2020-07-16 12:00:00 28.7 5 Sudeste 17 Nordeste 0 -- -- 41
2020-07-16 11:00:00 26.6 5 Este 18 Este 0 -- -- 45
2020-07-16 10:00:00 23.7 5 Sudeste 19 Sudeste 0 -- -- 53
2020-07-16 09:00:00 21.1 5 Sudeste 25 Este 0 -- -- 60
2020-07-16 08:00:00 20 5 Sudeste 20 Sudeste 0 -- -- 66
2020-07-16 07:00:00 20.1 5 Sudeste 22 Este 0 -- -- 67
2020-07-16 06:00:00 20.6 5 Sudeste 22 Sudeste 0 -- -- 65
2020-07-16 05:00:00 21.2 6 Sudeste 19 Nordeste 0 -- -- 66
2020-07-16 04:00:00 22.1 6 Sudeste 24 Sudeste 0 -- -- 61
2020-07-16 03:00:00 23.5 6 Este 18 Nordeste 0 -- -- 57
2020-07-16 02:00:00 25.5 0 Calma 8 Este 0 -- -- 42
2020-07-16 01:00:00 26.3 2 Sur 14 Norte 0 -- -- 41
2020-07-16 00:00:00 27.1 3 Este 9 Este 0 -- -- 39
2020-07-15 23:00:00 28.3 4 Sudeste 12 Este 0 -- -- 38
2020-07-15 22:00:00 29.6 3 Sudeste 14 Sudeste 0 -- -- 35
2020-07-15 21:00:00 31 5 Nordeste 17 Nordeste 0 -- -- 32
2020-07-15 20:00:00 31.4 6 Nordeste 18 Este 0 -- -- 31
2020-07-15 19:00:00 32.4 8 Norte 20 Nordeste 0 -- -- 31
2020-07-15 18:00:00 33.1 6 Sur 19 Nordeste 0 -- -- 31
2020-07-15 17:00:00 32.8 6 Sudeste 21 Sudoeste 0 -- -- 32
2020-07-15 16:00:00 32.6 8 Sur 24 Sur 0 -- -- 34
2020-07-15 15:00:00 31.1 8 Este 21 Nordeste 0 -- -- 36
2020-07-15 14:00:00 29.9 7 Este 26 Nordeste 0 -- -- 38
2020-07-15 13:00:00 28.5 7 Este 23 Nordeste 0 -- -- 45
2020-07-15 12:00:00 26.3 7 Este 17 Este 0 -- -- 54
2020-07-15 11:00:00 24.3 6 Sudeste 19 Sudeste 0 -- -- 61
2020-07-15 10:00:00 21.7 5 Sudeste 16 Sudeste 0 -- -- 70
2020-07-15 09:00:00 18.6 6 Este 20 Sudeste 0 -- -- 82
2020-07-15 08:00:00 17.6 7 Sudeste 19 Sudeste 0 -- -- 84
2020-07-15 07:00:00 17.6 6 Este 17 Sudeste 0 -- -- 83
2020-07-15 06:00:00 17.9 4 Sudeste 21 Este 0 -- -- 82
2020-07-15 05:00:00 18.2 5 Sudeste 27 Nordeste 0 -- -- 80
2020-07-15 04:00:00 18.4 6 Sudeste 23 Nordeste 0 -- -- 80
2020-07-15 03:00:00 18.9 5 Sudeste 17 Sudeste 0 -- -- 80
2020-07-15 02:00:00 19.2 4 Sudeste 16 Sudeste 0 -- -- 79
2020-07-15 01:00:00 20 7 Sudeste 18 Sudeste 0 -- -- 77
2020-07-15 00:00:00 20 5 Sudeste 24 Sudeste 0 -- -- 77
2020-07-14 23:00:00 20.4 9 Sudeste 29 Este 0 -- -- 75
2020-07-14 22:00:00 21.2 10 Sudeste 31 Este 0 -- -- 71
2020-07-14 21:00:00 23.4 12 Sudeste 31 Sudeste 0 -- -- 61
2020-07-14 20:00:00 27.6 10 Sudoeste 35 Sudoeste 0 -- -- 40
2020-07-14 19:00:00 28.2 21 Sur 39 Sur 0 -- -- 39
2020-07-14 18:00:00 33.5 9 Sudeste 31 Sur 0 -- -- 32
2020-07-14 17:00:00 34.8 7 Norte 20 Norte 0 -- -- 28
2020-07-14 16:00:00 33.9 8 Norte 18 Noroeste 0 -- -- 33
2020-07-14 15:00:00 33 5 Sur 12 Sudeste 0 -- -- 35
2020-07-14 14:00:00 31.4 4 Sudeste 11 Norte 0 -- -- 38
2020-07-14 13:00:00 30.7 6 Sur 10 Sudoeste 0 -- -- 39
2020-07-14 12:00:00 29 4 Este 12 Nordeste 0 -- -- 44
2020-07-14 11:00:00 26.9 3 Sudoeste 15 Sur 0 -- -- 50
2020-07-14 10:00:00 24.2 5 Sudeste 17 Sudeste 0 -- -- 56
2020-07-14 09:00:00 21.8 5 Sudeste 17 Este 0 -- -- 64
2020-07-14 08:00:00 20.5 5 Este 19 Nordeste 0 -- -- 67
2020-07-14 07:00:00 20.5 4 Sudeste 22 Sudeste 0 -- -- 68
2020-07-14 06:00:00 21.2 8 Sudeste 24 Sur 0 -- -- 66
2020-07-14 05:00:00 21.8 8 Sudeste 33 Sur 0 -- -- 64
2020-07-14 04:00:00 22.6 8 Sudeste 26 Sur 0 -- -- 61
2020-07-14 03:00:00 23.6 8 Sudeste 25 Sudeste 0 -- -- 56
2020-07-14 02:00:00 25 8 Sudeste 21 Sudeste 0 -- -- 47
2020-07-14 01:00:00 26.9 5 Sudeste 20 Sur 0 -- -- 47
2020-07-14 00:00:00 28.8 4 Sudeste 17 Sudeste 0 -- -- 42